sensor_id;sensor_type;location;lat;lon;timestamp;pressure;altitude;pressure_sealevel;temperature;humidity
79123;BME280;68526;44.600;26.032;2023-07-24T00:00:13;100614.63;;;20.63;74.00
79123;BME280;68526;44.600;26.032;2023-07-24T00:00:29;100621.00;;;20.64;73.79
79123;BME280;68526;44.600;26.032;2023-07-24T00:00:45;100622.97;;;20.63;73.76
79123;BME280;68526;44.600;26.032;2023-07-24T00:01:01;100616.25;;;20.64;73.76
79123;BME280;68526;44.600;26.032;2023-07-24T00:01:16;100619.38;;;20.63;73.80
79123;BME280;68526;44.600;26.032;2023-07-24T00:01:34;100625.75;;;20.63;73.91
79123;BME280;68526;44.600;26.032;2023-07-24T00:01:51;100624.94;;;20.63;74.04
79123;BME280;68526;44.600;26.032;2023-07-24T00:02:07;100618.59;;;20.62;73.94
79123;BME280;68526;44.600;26.032;2023-07-24T00:02:23;100616.59;;;20.63;74.04
79123;BME280;68526;44.600;26.032;2023-07-24T00:02:39;100622.16;;;20.63;73.96
79123;BME280;68526;44.600;26.032;2023-07-24T00:02:54;100620.19;;;20.63;73.95
79123;BME280;68526;44.600;26.032;2023-07-24T00:03:11;100622.16;;;20.63;73.97
79123;BME280;68526;44.600;26.032;2023-07-24T00:03:27;100619.38;;;20.63;73.84
79123;BME280;68526;44.600;26.032;2023-07-24T00:03:43;100616.59;;;20.63;74.01
79123;BME280;68526;44.600;26.032;2023-07-24T00:03:59;100621.00;;;20.64;73.95
79123;BME280;68526;44.600;26.032;2023-07-24T00:04:15;100616.59;;;20.63;73.77
79123;BME280;68526;44.600;26.032;2023-07-24T00:04:31;100624.16;;;20.62;74.04
79123;BME280;68526;44.600;26.032;2023-07-24T00:04:47;100614.63;;;20.63;73.98
79123;BME280;68526;44.600;26.032;2023-07-24T00:05:03;100618.59;;;20.62;74.00
79123;BME280;68526;44.600;26.032;2023-07-24T00:05:20;100619.38;;;20.63;73.94
79123;BME280;68526;44.600;26.032;2023-07-24T00:05:36;100619.38;;;20.63;74.03
79123;BME280;68526;44.600;26.032;2023-07-24T00:05:52;100624.94;;;20.63;74.14
79123;BME280;68526;44.600;26.032;2023-07-24T00:06:08;100619.38;;;20.63;74.23
79123;BME280;68526;44.600;26.032;2023-07-24T00:06:23;100615.81;;;20.62;74.09
79123;BME280;68526;44.600;26.032;2023-07-24T00:06:39;100622.16;;;20.63;73.87
79123;BME280;68526;44.600;26.032;2023-07-24T00:06:55;100626.13;;;20.62;74.26
79123;BME280;68526;44.600;26.032;2023-07-24T00:07:11;100618.19;;;20.60;74.12
79123;BME280;68526;44.600;26.032;2023-07-24T00:07:27;100613.81;;;20.59;74.58
79123;BME280;68526;44.600;26.032;2023-07-24T00:07:43;100615.41;;;20.60;74.28
79123;BME280;68526;44.600;26.032;2023-07-24T00:07:59;100617.38;;;20.60;74.50
79123;BME280;68526;44.600;26.032;2023-07-24T00:08:15;100612.22;;;20.58;74.83
79123;BME280;68526;44.600;26.032;2023-07-24T00:08:31;100616.59;;;20.59;74.90
79123;BME280;68526;44.600;26.032;2023-07-24T00:08:46;100623.34;;;20.58;74.77
79123;BME280;68526;44.600;26.032;2023-07-24T00:09:02;100615.00;;;20.58;74.97
79123;BME280;68526;44.600;26.032;2023-07-24T00:09:19;100623.69;;;20.57;74.96
79123;BME280;68526;44.600;26.032;2023-07-24T00:09:35;100623.69;;;20.57;75.03
79123;BME280;68526;44.600;26.032;2023-07-24T00:09:51;100624.88;;;20.56;75.19
79123;BME280;68526;44.600;26.032;2023-07-24T00:10:07;100622.09;;;20.56;75.23
79123;BME280;68526;44.600;26.032;2023-07-24T00:10:23;100618.13;;;20.53;75.46
79123;BME280;68526;44.600;26.032;2023-07-24T00:10:39;100618.13;;;20.53;75.41
79123;BME280;68526;44.600;26.032;2023-07-24T00:10:56;100628.44;;;20.52;75.35
79123;BME280;68526;44.600;26.032;2023-07-24T00:11:11;100629.59;;;20.51;75.78
79123;BME280;68526;44.600;26.032;2023-07-24T00:11:27;100623.22;;;20.51;75.67
79123;BME280;68526;44.600;26.032;2023-07-24T00:11:43;100624.00;;;20.48;75.80
79123;BME280;68526;44.600;26.032;2023-07-24T00:11:59;100625.59;;;20.49;75.62
79123;BME280;68526;44.600;26.032;2023-07-24T00:12:14;100622.03;;;20.48;75.57
79123;BME280;68526;44.600;26.032;2023-07-24T00:12:30;100624.81;;;20.48;75.53
79123;BME280;68526;44.600;26.032;2023-07-24T00:12:46;100624.81;;;20.48;75.53
79123;BME280;68526;44.600;26.032;2023-07-24T00:13:02;100615.59;;;20.44;75.71
79123;BME280;68526;44.600;26.032;2023-07-24T00:13:19;100618.03;;;20.46;75.54
79123;BME280;68526;44.600;26.032;2023-07-24T00:13:35;100621.53;;;20.43;75.83
79123;BME280;68526;44.600;26.032;2023-07-24T00:13:50;100618.69;;;20.39;75.69
79123;BME280;68526;44.600;26.032;2023-07-24T00:14:06;100615.13;;;20.39;76.02
79123;BME280;68526;44.600;26.032;2023-07-24T00:14:22;100623.09;;;20.40;75.53
79123;BME280;68526;44.600;26.032;2023-07-24T00:14:38;100622.31;;;20.40;75.62
79123;BME280;68526;44.600;26.032;2023-07-24T00:14:53;100617.53;;;20.40;75.74
79123;BME280;68526;44.600;26.032;2023-07-24T00:15:10;100617.53;;;20.40;75.49
79123;BME280;68526;44.600;26.032;2023-07-24T00:15:26;100618.69;;;20.39;75.72
79123;BME280;68526;44.600;26.032;2023-07-24T00:15:43;100613.13;;;20.39;75.93
79123;BME280;68526;44.600;26.032;2023-07-24T00:15:58;100617.91;;;20.39;75.66
79123;BME280;68526;44.600;26.032;2023-07-24T00:16:14;100615.13;;;20.39;75.72
79123;BME280;68526;44.600;26.032;2023-07-24T00:16:30;100610.34;;;20.39;75.40
79123;BME280;68526;44.600;26.032;2023-07-24T00:16:47;100618.34;;;20.41;75.79
79123;BME280;68526;44.600;26.032;2023-07-24T00:17:03;100607.56;;;20.39;75.62
79123;BME280;68526;44.600;26.032;2023-07-24T00:17:20;100614.31;;;20.38;75.44
79123;BME280;68526;44.600;26.032;2023-07-24T00:17:36;100621.47;;;20.39;75.43
79123;BME280;68526;44.600;26.032;2023-07-24T00:17:52;100615.13;;;20.39;75.49
79123;BME280;68526;44.600;26.032;2023-07-24T00:18:08;100611.53;;;20.35;75.54
79123;BME280;68526;44.600;26.032;2023-07-24T00:18:23;100606.38;;;20.37;75.43
79123;BME280;68526;44.600;26.032;2023-07-24T00:18:39;100613.91;;;20.36;75.32
79123;BME280;68526;44.600;26.032;2023-07-24T00:18:57;100617.88;;;20.35;75.32
79123;BME280;68526;44.600;26.032;2023-07-24T00:19:12;100613.91;;;20.36;75.45
79123;BME280;68526;44.600;26.032;2023-07-24T00:19:28;100611.13;;;20.36;75.41
79123;BME280;68526;44.600;26.032;2023-07-24T00:19:44;100610.34;;;20.36;75.48
79123;BME280;68526;44.600;26.032;2023-07-24T00:20:00;100608.34;;;20.36;75.36
79123;BME280;68526;44.600;26.032;2023-07-24T00:20:16;100608.34;;;20.36;75.24
79123;BME280;68526;44.600;26.032;2023-07-24T00:20:32;100612.31;;;20.35;75.41
79123;BME280;68526;44.600;26.032;2023-07-24T00:20:48;100618.69;;;20.36;75.37
79123;BME280;68526;44.600;26.032;2023-07-24T00:21:04;100611.13;;;20.36;75.36
79123;BME280;68526;44.600;26.032;2023-07-24T00:21:20;100618.69;;;20.36;75.25
79123;BME280;68526;44.600;26.032;2023-07-24T00:21:35;100613.91;;;20.36;75.36
79123;BME280;68526;44.600;26.032;2023-07-24T00:21:51;100613.91;;;20.36;75.35
79123;BME280;68526;44.600;26.032;2023-07-24T00:22:07;100613.91;;;20.36;75.09
79123;BME280;68526;44.600;26.032;2023-07-24T00:22:24;100611.94;;;20.37;75.38
79123;BME280;68526;44.600;26.032;2023-07-24T00:22:39;100614.72;;;20.37;75.24
79123;BME280;68526;44.600;26.032;2023-07-24T00:22:56;100617.50;;;20.37;75.29
79123;BME280;68526;44.600;26.032;2023-07-24T00:23:11;100616.69;;;20.36;75.20
79123;BME280;68526;44.600;26.032;2023-07-24T00:23:27;100614.31;;;20.35;74.98
79123;BME280;68526;44.600;26.032;2023-07-24T00:23:43;100619.47;;;20.36;75.19
79123;BME280;68526;44.600;26.032;2023-07-24T00:23:59;100614.72;;;20.37;74.94
79123;BME280;68526;44.600;26.032;2023-07-24T00:24:15;100609.53;;;20.35;75.07
79123;BME280;68526;44.600;26.032;2023-07-24T00:24:32;100618.69;;;20.36;75.16
79123;BME280;68526;44.600;26.032;2023-07-24T00:24:47;100617.09;;;20.35;75.13
79123;BME280;68526;44.600;26.032;2023-07-24T00:25:04;100615.44;;;20.34;75.07
79123;BME280;68526;44.600;26.032;2023-07-24T00:25:21;100615.09;;;20.35;75.15
79123;BME280;68526;44.600;26.032;2023-07-24T00:25:37;100611.88;;;20.33;75.11
79123;BME280;68526;44.600;26.032;2023-07-24T00:25:54;100613.50;;;20.34;74.87
79123;BME280;68526;44.600;26.032;2023-07-24T00:26:09;100615.44;;;20.34;75.05
79123;BME280;68526;44.600;26.032;2023-07-24T00:26:25;100621.84;;;20.34;75.05
79123;BME280;68526;44.600;26.032;2023-07-24T00:26:41;100611.47;;;20.31;75.21
79123;BME280;68526;44.600;26.032;2023-07-24T00:26:57;100617.41;;;20.30;75.06
79123;BME280;68526;44.600;26.032;2023-07-24T00:27:13;100617.81;;;20.28;74.97
79123;BME280;68526;44.600;26.032;2023-07-24T00:27:29;100619.41;;;20.29;75.12
79123;BME280;68526;44.600;26.032;2023-07-24T00:27:45;100615.81;;;20.28;75.06
79123;BME280;68526;44.600;26.032;2023-07-24T00:28:02;100613.41;;;20.27;75.20
79123;BME280;68526;44.600;26.032;2023-07-24T00:28:18;100613.03;;;20.28;74.84
79123;BME280;68526;44.600;26.032;2023-07-24T00:28:33;100614.63;;;20.30;75.05
79123;BME280;68526;44.600;26.032;2023-07-24T00:28:49;100619.41;;;20.29;75.22
79123;BME280;68526;44.600;26.032;2023-07-24T00:29:05;100623.78;;;20.30;74.79
79123;BME280;68526;44.600;26.032;2023-07-24T00:29:21;100616.97;;;20.27;74.79
79123;BME280;68526;44.600;26.032;2023-07-24T00:29:36;100616.63;;;20.29;74.96
79123;BME280;68526;44.600;26.032;2023-07-24T00:29:53;100613.03;;;20.28;74.90
79123;BME280;68526;44.600;26.032;2023-07-24T00:30:09;100615.81;;;20.28;75.03
79123;BME280;68526;44.600;26.032;2023-07-24T00:30:26;100614.63;;;20.30;74.94
79123;BME280;68526;44.600;26.032;2023-07-24T00:30:42;100614.63;;;20.30;74.99
79123;BME280;68526;44.600;26.032;2023-07-24T00:30:58;100617.41;;;20.30;75.16
79123;BME280;68526;44.600;26.032;2023-07-24T00:31:13;100610.25;;;20.28;75.13
79123;BME280;68526;44.600;26.032;2023-07-24T00:31:30;100613.03;;;20.28;75.15
79123;BME280;68526;44.600;26.032;2023-07-24T00:31:48;100614.19;;;20.27;75.12
79123;BME280;68526;44.600;26.032;2023-07-24T00:32:04;100611.38;;;20.24;75.28
79123;BME280;68526;44.600;26.032;2023-07-24T00:32:20;100609.00;;;20.22;75.12
79123;BME280;68526;44.600;26.032;2023-07-24T00:32:36;100616.94;;;20.24;75.12
79123;BME280;68526;44.600;26.032;2023-07-24T00:32:52;100607.81;;;20.23;75.28
79123;BME280;68526;44.600;26.032;2023-07-24T00:33:07;100613.38;;;20.23;75.22
79123;BME280;68526;44.600;26.032;2023-07-24T00:33:24;100617.75;;;20.24;75.26
79123;BME280;68526;44.600;26.032;2023-07-24T00:33:40;100606.63;;;20.24;75.41
79123;BME280;68526;44.600;26.032;2023-07-24T00:33:56;100614.97;;;20.24;75.28
79123;BME280;68526;44.600;26.032;2023-07-24T00:34:15;100615.75;;;20.25;74.97
79123;BME280;68526;44.600;26.032;2023-07-24T00:34:31;100610.19;;;20.25;75.13
79123;BME280;68526;44.600;26.032;2023-07-24T00:34:47;100611.38;;;20.24;74.92
79123;BME280;68526;44.600;26.032;2023-07-24T00:35:03;100605.81;;;20.24;75.13
79123;BME280;68526;44.600;26.032;2023-07-24T00:35:19;100607.00;;;20.23;74.94
79123;BME280;68526;44.600;26.032;2023-07-24T00:35:34;100612.56;;;20.23;75.07
79123;BME280;68526;44.600;26.032;2023-07-24T00:35:55;100612.19;;;20.24;74.88
79123;BME280;68526;44.600;26.032;2023-07-24T00:36:11;100606.22;;;20.22;74.96
79123;BME280;68526;44.600;26.032;2023-07-24T00:36:26;100606.56;;;20.21;75.21
79123;BME280;68526;44.600;26.032;2023-07-24T00:36:42;100607.75;;;20.20;75.04
79123;BME280;68526;44.600;26.032;2023-07-24T00:36:58;100610.59;;;20.23;75.20
79123;BME280;68526;44.600;26.032;2023-07-24T00:37:14;100604.22;;;20.23;75.14
79123;BME280;68526;44.600;26.032;2023-07-24T00:37:30;100606.22;;;20.22;75.14
79123;BME280;68526;44.600;26.032;2023-07-24T00:37:46;100603.03;;;20.24;75.16
79123;BME280;68526;44.600;26.032;2023-07-24T00:38:02;100615.34;;;20.23;75.35
79123;BME280;68526;44.600;26.032;2023-07-24T00:38:18;100607.00;;;20.23;75.16
79123;BME280;68526;44.600;26.032;2023-07-24T00:38:34;100611.38;;;20.24;75.08
79123;BME280;68526;44.600;26.032;2023-07-24T00:38:49;100604.22;;;20.23;75.28
79123;BME280;68526;44.600;26.032;2023-07-24T00:39:05;100610.97;;;20.22;75.29
79123;BME280;68526;44.600;26.032;2023-07-24T00:39:21;100608.19;;;20.22;75.42
79123;BME280;68526;44.600;26.032;2023-07-24T00:39:37;100610.16;;;20.21;75.25
79123;BME280;68526;44.600;26.032;2023-07-24T00:39:53;100607.38;;;20.21;75.31
79123;BME280;68526;44.600;26.032;2023-07-24T00:40:10;100606.22;;;20.22;75.25
79123;BME280;68526;44.600;26.032;2023-07-24T00:40:26;100605.41;;;20.22;75.41
79123;BME280;68526;44.600;26.032;2023-07-24T00:40:41;100607.81;;;20.23;75.35
79123;BME280;68526;44.600;26.032;2023-07-24T00:40:57;100602.63;;;20.22;75.44
79123;BME280;68526;44.600;26.032;2023-07-24T00:41:13;100606.22;;;20.22;75.45
79123;BME280;68526;44.600;26.032;2023-07-24T00:41:29;100600.66;;;20.22;75.59
79123;BME280;68526;44.600;26.032;2023-07-24T00:41:45;100603.38;;;20.19;75.74
79123;BME280;68526;44.600;26.032;2023-07-24T00:42:02;100601.81;;;20.21;75.90
79123;BME280;68526;44.600;26.032;2023-07-24T00:42:18;100608.19;;;20.22;75.95
79123;BME280;68526;44.600;26.032;2023-07-24T00:42:34;100612.56;;;20.23;75.94
79123;BME280;68526;44.600;26.032;2023-07-24T00:42:49;100600.66;;;20.22;76.08
79123;BME280;68526;44.600;26.032;2023-07-24T00:43:05;100602.25;;;20.23;75.89
79123;BME280;68526;44.600;26.032;2023-07-24T00:43:21;100607.00;;;20.23;76.17
79123;BME280;68526;44.600;26.032;2023-07-24T00:43:37;100605.03;;;20.23;76.08
79123;BME280;68526;44.600;26.032;2023-07-24T00:43:53;100605.03;;;20.23;75.89
79123;BME280;68526;44.600;26.032;2023-07-24T00:44:10;100597.47;;;20.24;76.08
79123;BME280;68526;44.600;26.032;2023-07-24T00:44:25;100600.25;;;20.24;76.08
79123;BME280;68526;44.600;26.032;2023-07-24T00:44:41;100599.47;;;20.23;76.15
79123;BME280;68526;44.600;26.032;2023-07-24T00:44:57;100595.88;;;20.23;76.16
79123;BME280;68526;44.600;26.032;2023-07-24T00:45:13;100598.28;;;20.24;75.91
79123;BME280;68526;44.600;26.032;2023-07-24T00:45:29;100602.25;;;20.23;75.98
79123;BME280;68526;44.600;26.032;2023-07-24T00:45:46;100594.69;;;20.24;76.05
79123;BME280;68526;44.600;26.032;2023-07-24T00:46:03;100597.47;;;20.24;76.35
79123;BME280;68526;44.600;26.032;2023-07-24T00:46:19;100603.03;;;20.24;76.03
79123;BME280;68526;44.600;26.032;2023-07-24T00:46:35;100597.47;;;20.24;76.09
79123;BME280;68526;44.600;26.032;2023-07-24T00:46:53;100595.88;;;20.23;76.05
79123;BME280;68526;44.600;26.032;2023-07-24T00:47:09;100597.47;;;20.24;75.90
79123;BME280;68526;44.600;26.032;2023-07-24T00:47:26;100598.66;;;20.23;76.05
79123;BME280;68526;44.600;26.032;2023-07-24T00:47:43;100603.03;;;20.24;75.86
79123;BME280;68526;44.600;26.032;2023-07-24T00:48:00;100600.25;;;20.24;76.21
79123;BME280;68526;44.600;26.032;2023-07-24T00:48:17;100591.91;;;20.24;76.11
79123;BME280;68526;44.600;26.032;2023-07-24T00:48:33;100602.25;;;20.23;76.00
79123;BME280;68526;44.600;26.032;2023-07-24T00:48:49;100595.50;;;20.24;76.03
79123;BME280;68526;44.600;26.032;2023-07-24T00:49:05;100592.72;;;20.24;75.98
79123;BME280;68526;44.600;26.032;2023-07-24T00:49:21;100596.69;;;20.23;76.20
79123;BME280;68526;44.600;26.032;2023-07-24T00:49:37;100587.53;;;20.23;76.13
79123;BME280;68526;44.600;26.032;2023-07-24T00:49:53;100589.13;;;20.24;76.03
79123;BME280;68526;44.600;26.032;2023-07-24T00:50:10;100590.69;;;20.21;75.97
79123;BME280;68526;44.600;26.032;2023-07-24T00:50:28;100585.94;;;20.22;75.95
79123;BME280;68526;44.600;26.032;2023-07-24T00:50:45;100592.31;;;20.22;75.59
79123;BME280;68526;44.600;26.032;2023-07-24T00:51:01;100589.53;;;20.22;75.75
79123;BME280;68526;44.600;26.032;2023-07-24T00:51:17;100586.34;;;20.24;75.68
79123;BME280;68526;44.600;26.032;2023-07-24T00:51:34;100589.09;;;20.20;75.82
79123;BME280;68526;44.600;26.032;2023-07-24T00:51:50;100586.31;;;20.20;76.09
79123;BME280;68526;44.600;26.032;2023-07-24T00:52:06;100589.09;;;20.20;75.96
79123;BME280;68526;44.600;26.032;2023-07-24T00:52:24;100590.25;;;20.19;76.11
79123;BME280;68526;44.600;26.032;2023-07-24T00:52:41;100593.84;;;20.20;76.00
79123;BME280;68526;44.600;26.032;2023-07-24T00:52:57;100584.28;;;20.17;76.16
79123;BME280;68526;44.600;26.032;2023-07-24T00:53:15;100589.47;;;20.19;76.09
79123;BME280;68526;44.600;26.032;2023-07-24T00:53:32;100577.53;;;20.18;75.81
79123;BME280;68526;44.600;26.032;2023-07-24T00:53:47;100586.69;;;20.19;76.03
79123;BME280;68526;44.600;26.032;2023-07-24T00:54:05;100587.06;;;20.17;76.28
79123;BME280;68526;44.600;26.032;2023-07-24T00:54:22;100584.28;;;20.17;76.37
79123;BME280;68526;44.600;26.032;2023-07-24T00:54:40;100585.47;;;20.16;76.04
79123;BME280;68526;44.600;26.032;2023-07-24T00:54:56;100577.94;;;20.17;76.23
79123;BME280;68526;44.600;26.032;2023-07-24T00:55:12;100585.09;;;20.18;76.23
79123;BME280;68526;44.600;26.032;2023-07-24T00:55:28;100583.50;;;20.17;76.23
79123;BME280;68526;44.600;26.032;2023-07-24T00:55:44;100581.50;;;20.17;75.94
79123;BME280;68526;44.600;26.032;2023-07-24T00:56:00;100587.88;;;20.18;75.98
79123;BME280;68526;44.600;26.032;2023-07-24T00:56:17;100580.72;;;20.17;76.28
79123;BME280;68526;44.600;26.032;2023-07-24T00:56:34;100587.06;;;20.17;76.15
79123;BME280;68526;44.600;26.032;2023-07-24T00:56:50;100584.66;;;20.16;76.16
79123;BME280;68526;44.600;26.032;2023-07-24T00:57:06;100581.06;;;20.15;75.86
79123;BME280;68526;44.600;26.032;2023-07-24T00:57:23;100582.69;;;20.16;76.15
79123;BME280;68526;44.600;26.032;2023-07-24T00:57:40;100580.72;;;20.17;76.11
79123;BME280;68526;44.600;26.032;2023-07-24T00:57:57;100588.25;;;20.16;75.95
79123;BME280;68526;44.600;26.032;2023-07-24T00:58:16;100582.69;;;20.16;76.10
79123;BME280;68526;44.600;26.032;2023-07-24T00:58:33;100585.47;;;20.16;76.21
79123;BME280;68526;44.600;26.032;2023-07-24T00:58:49;100588.25;;;20.16;76.23
79123;BME280;68526;44.600;26.032;2023-07-24T00:59:05;100584.66;;;20.16;75.89
79123;BME280;68526;44.600;26.032;2023-07-24T00:59:21;100583.50;;;20.17;75.93
79123;BME280;68526;44.600;26.032;2023-07-24T00:59:37;100586.28;;;20.17;75.93
79123;BME280;68526;44.600;26.032;2023-07-24T00:59:53;100584.66;;;20.16;75.83
79123;BME280;68526;44.600;26.032;2023-07-24T01:00:11;100581.06;;;20.15;75.97
79123;BME280;68526;44.600;26.032;2023-07-24T01:00:27;100578.28;;;20.15;75.99
79123;BME280;68526;44.600;26.032;2023-07-24T01:00:43;100581.06;;;20.15;75.81
79123;BME280;68526;44.600;26.032;2023-07-24T01:00:59;100583.06;;;20.15;75.81
79123;BME280;68526;44.600;26.032;2023-07-24T01:01:16;100586.63;;;20.15;75.70
79123;BME280;68526;44.600;26.032;2023-07-24T01:01:32;100584.66;;;20.16;75.74
79123;BME280;68526;44.600;26.032;2023-07-24T01:01:49;100581.06;;;20.15;75.81
79123;BME280;68526;44.600;26.032;2023-07-24T01:02:07;100583.84;;;20.15;75.91
79123;BME280;68526;44.600;26.032;2023-07-24T01:02:23;100583.06;;;20.15;75.85
79123;BME280;68526;44.600;26.032;2023-07-24T01:02:39;100589.00;;;20.13;75.74
79123;BME280;68526;44.600;26.032;2023-07-24T01:02:55;100581.84;;;20.12;75.64
79123;BME280;68526;44.600;26.032;2023-07-24T01:03:11;100580.66;;;20.13;75.63
79123;BME280;68526;44.600;26.032;2023-07-24T01:03:32;100583.44;;;20.13;75.60
79123;BME280;68526;44.600;26.032;2023-07-24T01:03:49;100579.06;;;20.12;75.46
79123;BME280;68526;44.600;26.032;2023-07-24T01:04:05;100580.66;;;20.13;75.32
79123;BME280;68526;44.600;26.032;2023-07-24T01:04:22;100579.06;;;20.12;75.47
79123;BME280;68526;44.600;26.032;2023-07-24T01:04:38;100579.84;;;20.13;75.55
79123;BME280;68526;44.600;26.032;2023-07-24T01:04:54;100579.06;;;20.12;75.28
79123;BME280;68526;44.600;26.032;2023-07-24T01:05:11;100581.03;;;20.12;75.26
79123;BME280;68526;44.600;26.032;2023-07-24T01:05:30;100581.44;;;20.10;75.95
79123;BME280;68526;44.600;26.032;2023-07-24T01:05:45;100579.44;;;20.11;75.55
79123;BME280;68526;44.600;26.032;2023-07-24T01:06:01;100584.56;;;20.09;75.46
79123;BME280;68526;44.600;26.032;2023-07-24T01:06:17;100579.00;;;20.09;75.45
79123;BME280;68526;44.600;26.032;2023-07-24T01:06:33;100577.81;;;20.10;75.46
79123;BME280;68526;44.600;26.032;2023-07-24T01:06:49;100570.31;;;20.10;75.58
79123;BME280;68526;44.600;26.032;2023-07-24T01:07:05;100572.25;;;20.10;75.71
79123;BME280;68526;44.600;26.032;2023-07-24T01:07:22;100574.25;;;20.09;75.61
79123;BME280;68526;44.600;26.032;2023-07-24T01:07:38;100575.03;;;20.10;75.77
79123;BME280;68526;44.600;26.032;2023-07-24T01:07:54;100578.66;;;20.10;75.67
79123;BME280;68526;44.600;26.032;2023-07-24T01:08:10;100575.03;;;20.10;75.80
79123;BME280;68526;44.600;26.032;2023-07-24T01:08:26;100575.88;;;20.10;75.71
79123;BME280;68526;44.600;26.032;2023-07-24T01:08:41;100578.66;;;20.10;76.01
79123;BME280;68526;44.600;26.032;2023-07-24T01:08:57;100567.09;;;20.08;75.77
79123;BME280;68526;44.600;26.032;2023-07-24T01:09:14;100577.81;;;20.10;75.90
79123;BME280;68526;44.600;26.032;2023-07-24T01:09:30;100574.25;;;20.09;75.94
79123;BME280;68526;44.600;26.032;2023-07-24T01:09:46;100584.22;;;20.10;75.87
79123;BME280;68526;44.600;26.032;2023-07-24T01:10:03;100568.31;;;20.11;75.79
79123;BME280;68526;44.600;26.032;2023-07-24T01:10:18;100575.88;;;20.10;75.90
79123;BME280;68526;44.600;26.032;2023-07-24T01:10:42;100574.25;;;20.09;75.99
79123;BME280;68526;44.600;26.032;2023-07-24T01:11:04;100581.44;;;20.10;75.75
79123;BME280;68526;44.600;26.032;2023-07-24T01:11:27;100578.66;;;20.10;75.83
79123;BME280;68526;44.600;26.032;2023-07-24T01:11:46;100577.03;;;20.09;76.10
79123;BME280;68526;44.600;26.032;2023-07-24T01:12:07;100570.66;;;20.09;76.26
79123;BME280;68526;44.600;26.032;2023-07-24T01:12:31;100577.81;;;20.10;76.21
79123;BME280;68526;44.600;26.032;2023-07-24T01:12:54;100579.00;;;20.09;75.88
79123;BME280;68526;44.600;26.032;2023-07-24T01:13:16;100569.88;;;20.08;76.09
79123;BME280;68526;44.600;26.032;2023-07-24T01:13:36;100575.44;;;20.08;76.03
79123;BME280;68526;44.600;26.032;2023-07-24T01:13:58;100580.19;;;20.08;76.20
79123;BME280;68526;44.600;26.032;2023-07-24T01:14:21;100578.22;;;20.08;76.09
79123;BME280;68526;44.600;26.032;2023-07-24T01:14:44;100580.56;;;20.06;76.07
79123;BME280;68526;44.600;26.032;2023-07-24T01:15:07;100579.41;;;20.07;76.08
79123;BME280;68526;44.600;26.032;2023-07-24T01:15:30;100573.84;;;20.07;76.13
79123;BME280;68526;44.600;26.032;2023-07-24T01:15:54;100575.81;;;20.07;76.06
79123;BME280;68526;44.600;26.032;2023-07-24T01:16:14;100578.59;;;20.07;76.22
79123;BME280;68526;44.600;26.032;2023-07-24T01:16:36;100573.03;;;20.07;76.20
79123;BME280;68526;44.600;26.032;2023-07-24T01:16:54;100575.03;;;20.06;76.23
79123;BME280;68526;44.600;26.032;2023-07-24T01:17:15;100567.47;;;20.07;76.33
79123;BME280;68526;44.600;26.032;2023-07-24T01:17:32;100571.44;;;20.06;76.50
79123;BME280;68526;44.600;26.032;2023-07-24T01:17:55;100574.22;;;20.06;76.37
79123;BME280;68526;44.600;26.032;2023-07-24T01:18:14;100577.78;;;20.06;76.45
79123;BME280;68526;44.600;26.032;2023-07-24T01:18:33;100582.56;;;20.06;76.64
79123;BME280;68526;44.600;26.032;2023-07-24T01:18:54;100588.91;;;20.06;76.44
79123;BME280;68526;44.600;26.032;2023-07-24T01:19:16;100578.97;;;20.05;76.39
79123;BME280;68526;44.600;26.032;2023-07-24T01:19:37;100572.63;;;20.05;76.48
79123;BME280;68526;44.600;26.032;2023-07-24T01:19:55;100576.56;;;20.04;76.38
79123;BME280;68526;44.600;26.032;2023-07-24T01:20:15;100581.31;;;20.03;76.40
79123;BME280;68526;44.600;26.032;2023-07-24T01:20:34;100578.94;;;20.01;76.42
79123;BME280;68526;44.600;26.032;2023-07-24T01:20:55;100578.13;;;20.01;76.30
79123;BME280;68526;44.600;26.032;2023-07-24T01:21:11;100574.56;;;20.00;76.46
79123;BME280;68526;44.600;26.032;2023-07-24T01:21:33;100582.47;;;19.98;76.49
79123;BME280;68526;44.600;26.032;2023-07-24T01:22:01;100581.66;;;19.98;76.56
79123;BME280;68526;44.600;26.032;2023-07-24T01:22:30;100578.88;;;19.98;76.55
79123;BME280;68526;44.600;26.032;2023-07-24T01:22:57;100578.06;;;19.97;76.44
79123;BME280;68526;44.600;26.032;2023-07-24T01:23:28;100575.69;;;19.96;76.47
79123;BME280;68526;44.600;26.032;2023-07-24T01:23:55;100573.28;;;19.94;76.49
79123;BME280;68526;44.600;26.032;2023-07-24T01:24:20;100586.00;;;19.95;76.63
79123;BME280;68526;44.600;26.032;2023-07-24T01:25:00;100581.63;;;19.94;76.56
79123;BME280;68526;44.600;26.032;2023-07-24T01:25:23;100583.59;;;19.94;76.52
79123;BME280;68526;44.600;26.032;2023-07-24T01:25:51;100580.03;;;19.93;76.65
79123;BME280;68526;44.600;26.032;2023-07-24T01:26:09;100575.25;;;19.94;76.70
79123;BME280;68526;44.600;26.032;2023-07-24T01:26:26;100576.81;;;19.91;76.77
79123;BME280;68526;44.600;26.032;2023-07-24T01:26:43;100580.03;;;19.93;76.77
79123;BME280;68526;44.600;26.032;2023-07-24T01:26:59;100577.59;;;19.92;76.88
79123;BME280;68526;44.600;26.032;2023-07-24T01:27:20;100578.44;;;19.92;76.79
79123;BME280;68526;44.600;26.032;2023-07-24T01:27:40;100578.78;;;19.91;76.84
79123;BME280;68526;44.600;26.032;2023-07-24T01:27:56;100577.19;;;19.90;77.00
79123;BME280;68526;44.600;26.032;2023-07-24T01:28:12;100577.19;;;19.90;77.01
79123;BME280;68526;44.600;26.032;2023-07-24T01:28:29;100574.41;;;19.90;77.11